sensor_id;sensor_type;location;lat;lon;timestamp;P1;durP1;ratioP1;P2;durP2;ratioP2
73421;SDS011;61637;47.760;-122.022;2023-04-25T00:00:02;3.1;;;0.7;;
73421;SDS011;61637;47.760;-122.022;2023-04-25T00:02:01;2.7;;;0.6;;
73421;SDS011;61637;47.760;-122.022;2023-04-25T00:04:01;2.0;;;0.6;;
73421;SDS011;61637;47.760;-122.022;2023-04-25T00:06:01;3.6;;;0.7;;
73421;SDS011;61637;47.760;-122.022;2023-04-25T00:08:01;2.6;;;0.8;;
73421;SDS011;61637;47.760;-122.022;2023-04-25T00:10:01;2.4;;;0.7;;
73421;SDS011;61637;47.760;-122.022;2023-04-25T00:12:02;2.7;;;0.6;;
73421;SDS011;61637;47.760;-122.022;2023-04-25T00:14:01;1.6;;;0.7;;
73421;SDS011;61637;47.760;-122.022;2023-04-25T00:16:01;2.3;;;0.7;;
73421;SDS011;61637;47.760;-122.022;2023-04-25T00:18:01;2.3;;;0.6;;
73421;SDS011;61637;47.760;-122.022;2023-04-25T00:20:02;2.0;;;0.7;;
73421;SDS011;61637;47.760;-122.022;2023-04-25T00:22:01;2.9;;;0.7;;
73421;SDS011;61637;47.760;-122.022;2023-04-25T00:24:01;2.1;;;0.7;;
73421;SDS011;61637;47.760;-122.022;2023-04-25T00:26:01;3.0;;;0.7;;
73421;SDS011;61637;47.760;-122.022;2023-04-25T00:28:01;1.3;;;0.6;;
73421;SDS011;61637;47.760;-122.022;2023-04-25T00:30:01;3.6;;;0.6;;
73421;SDS011;61637;47.760;-122.022;2023-04-25T00:32:01;2.4;;;0.6;;
73421;SDS011;61637;47.760;-122.022;2023-04-25T00:34:01;2.8;;;0.6;;
73421;SDS011;61637;47.760;-122.022;2023-04-25T00:36:01;1.5;;;0.6;;
73421;SDS011;61637;47.760;-122.022;2023-04-25T00:38:02;3.6;;;0.8;;
73421;SDS011;61637;47.760;-122.022;2023-04-25T00:40:01;3.4;;;0.7;;
73421;SDS011;61637;47.760;-122.022;2023-04-25T00:42:02;2.1;;;0.7;;
73421;SDS011;61637;47.760;-122.022;2023-04-25T00:44:02;2.5;;;0.6;;
73421;SDS011;61637;47.760;-122.022;2023-04-25T00:46:02;1.6;;;0.6;;
73421;SDS011;61637;47.760;-122.022;2023-04-25T00:48:02;1.6;;;0.7;;
73421;SDS011;61637;47.760;-122.022;2023-04-25T00:50:01;2.5;;;0.7;;
73421;SDS011;61637;47.760;-122.022;2023-04-25T00:52:01;2.2;;;0.7;;
73421;SDS011;61637;47.760;-122.022;2023-04-25T00:54:01;1.3;;;0.7;;
73421;SDS011;61637;47.760;-122.022;2023-04-25T00:56:01;3.4;;;0.7;;
73421;SDS011;61637;47.760;-122.022;2023-04-25T00:58:02;2.3;;;0.6;;
73421;SDS011;61637;47.760;-122.022;2023-04-25T01:00:02;2.0;;;0.6;;
73421;SDS011;61637;47.760;-122.022;2023-04-25T01:02:01;2.0;;;0.5;;
73421;SDS011;61637;47.760;-122.022;2023-04-25T01:04:01;1.5;;;0.6;;
73421;SDS011;61637;47.760;-122.022;2023-04-25T01:06:02;2.3;;;0.7;;
73421;SDS011;61637;47.760;-122.022;2023-04-25T01:08:02;3.3;;;0.7;;
73421;SDS011;61637;47.760;-122.022;2023-04-25T01:10:02;2.7;;;0.7;;
73421;SDS011;61637;47.760;-122.022;2023-04-25T01:12:01;3.2;;;0.8;;
73421;SDS011;61637;47.760;-122.022;2023-04-25T01:14:01;2.4;;;0.7;;
73421;SDS011;61637;47.760;-122.022;2023-04-25T01:16:02;2.0;;;0.7;;
73421;SDS011;61637;47.760;-122.022;2023-04-25T01:18:01;1.5;;;0.6;;
73421;SDS011;61637;47.760;-122.022;2023-04-25T01:20:04;3.5;;;0.7;;
73421;SDS011;61637;47.760;-122.022;2023-04-25T01:22:01;2.1;;;0.6;;
73421;SDS011;61637;47.760;-122.022;2023-04-25T01:24:02;1.9;;;0.6;;
73421;SDS011;61637;47.760;-122.022;2023-04-25T01:26:01;2.7;;;0.7;;
73421;SDS011;61637;47.760;-122.022;2023-04-25T01:28:01;1.5;;;0.6;;
73421;SDS011;61637;47.760;-122.022;2023-04-25T01:30:01;1.9;;;0.7;;
73421;SDS011;61637;47.760;-122.022;2023-04-25T01:32:01;4.3;;;0.8;;
73421;SDS011;61637;47.760;-122.022;2023-04-25T01:34:02;2.9;;;0.7;;
73421;SDS011;61637;47.760;-122.022;2023-04-25T01:36:01;2.2;;;0.7;;
73421;SDS011;61637;47.760;-122.022;2023-04-25T01:38:01;2.0;;;0.7;;
73421;SDS011;61637;47.760;-122.022;2023-04-25T01:40:02;2.9;;;0.6;;
73421;SDS011;61637;47.760;-122.022;2023-04-25T01:42:01;4.0;;;0.7;;
73421;SDS011;61637;47.760;-122.022;2023-04-25T01:44:02;3.2;;;0.7;;
73421;SDS011;61637;47.760;-122.022;2023-04-25T01:46:01;3.9;;;0.8;;
73421;SDS011;61637;47.760;-122.022;2023-04-25T01:48:01;4.0;;;0.8;;
73421;SDS011;61637;47.760;-122.022;2023-04-25T01:50:01;1.5;;;0.7;;
73421;SDS011;61637;47.760;-122.022;2023-04-25T01:52:01;2.8;;;0.7;;
73421;SDS011;61637;47.760;-122.022;2023-04-25T01:54:02;1.8;;;0.8;;
73421;SDS011;61637;47.760;-122.022;2023-04-25T01:56:01;1.9;;;0.7;;
73421;SDS011;61637;47.760;-122.022;2023-04-25T01:58:02;2.8;;;0.8;;
73421;SDS011;61637;47.760;-122.022;2023-04-25T02:00:04;3.8;;;0.8;;
73421;SDS011;61637;47.760;-122.022;2023-04-25T02:02:01;1.9;;;0.7;;
73421;SDS011;61637;47.760;-122.022;2023-04-25T02:04:01;3.5;;;0.7;;
73421;SDS011;61637;47.760;-122.022;2023-04-25T02:06:01;2.9;;;0.8;;
73421;SDS011;61637;47.760;-122.022;2023-04-25T02:08:01;4.3;;;0.9;;
73421;SDS011;61637;47.760;-122.022;2023-04-25T02:10:02;3.5;;;0.8;;
73421;SDS011;61637;47.760;-122.022;2023-04-25T02:12:01;3.1;;;0.8;;
73421;SDS011;61637;47.760;-122.022;2023-04-25T02:14:02;2.1;;;0.7;;
73421;SDS011;61637;47.760;-122.022;2023-04-25T02:16:01;2.5;;;0.8;;
73421;SDS011;61637;47.760;-122.022;2023-04-25T02:18:01;3.5;;;0.9;;
73421;SDS011;61637;47.760;-122.022;2023-04-25T02:20:02;2.7;;;0.8;;
73421;SDS011;61637;47.760;-122.022;2023-04-25T02:22:01;4.2;;;0.8;;
73421;SDS011;61637;47.760;-122.022;2023-04-25T02:24:02;5.5;;;0.8;;
73421;SDS011;61637;47.760;-122.022;2023-04-25T02:26:01;3.6;;;0.9;;
73421;SDS011;61637;47.760;-122.022;2023-04-25T02:28:01;4.2;;;0.9;;
73421;SDS011;61637;47.760;-122.022;2023-04-25T02:30:01;6.5;;;0.7;;
73421;SDS011;61637;47.760;-122.022;2023-04-25T02:32:01;4.2;;;0.8;;
73421;SDS011;61637;47.760;-122.022;2023-04-25T02:34:02;4.5;;;0.8;;
73421;SDS011;61637;47.760;-122.022;2023-04-25T02:36:01;4.2;;;0.8;;
73421;SDS011;61637;47.760;-122.022;2023-04-25T02:38:01;3.2;;;0.9;;
73421;SDS011;61637;47.760;-122.022;2023-04-25T02:40:02;3.7;;;0.8;;
73421;SDS011;61637;47.760;-122.022;2023-04-25T02:42:01;4.0;;;0.9;;
73421;SDS011;61637;47.760;-122.022;2023-04-25T02:44:01;6.8;;;1.4;;
73421;SDS011;61637;47.760;-122.022;2023-04-25T02:46:01;10.1;;;2.7;;
73421;SDS011;61637;47.760;-122.022;2023-04-25T02:48:01;8.7;;;2.5;;
73421;SDS011;61637;47.760;-122.022;2023-04-25T02:50:01;10.4;;;2.8;;
73421;SDS011;61637;47.760;-122.022;2023-04-25T02:52:02;10.8;;;3.0;;
73421;SDS011;61637;47.760;-122.022;2023-04-25T02:54:01;12.4;;;3.8;;
73421;SDS011;61637;47.760;-122.022;2023-04-25T02:56:01;14.0;;;3.8;;
73421;SDS011;61637;47.760;-122.022;2023-04-25T02:58:02;9.7;;;3.5;;
73421;SDS011;61637;47.760;-122.022;2023-04-25T03:00:02;14.4;;;6.6;;
73421;SDS011;61637;47.760;-122.022;2023-04-25T03:02:01;21.9;;;11.7;;
73421;SDS011;61637;47.760;-122.022;2023-04-25T03:04:01;30.4;;;17.8;;
73421;SDS011;61637;47.760;-122.022;2023-04-25T03:06:01;33.3;;;19.5;;
73421;SDS011;61637;47.760;-122.022;2023-04-25T03:08:02;25.3;;;13.0;;
73421;SDS011;61637;47.760;-122.022;2023-04-25T03:10:01;16.7;;;9.3;;
73421;SDS011;61637;47.760;-122.022;2023-04-25T03:12:01;21.4;;;11.1;;
73421;SDS011;61637;47.760;-122.022;2023-04-25T03:14:01;20.6;;;10.8;;
73421;SDS011;61637;47.760;-122.022;2023-04-25T03:16:01;17.3;;;8.6;;
73421;SDS011;61637;47.760;-122.022;2023-04-25T03:18:01;18.5;;;8.5;;
73421;SDS011;61637;47.760;-122.022;2023-04-25T03:20:01;14.8;;;7.1;;
73421;SDS011;61637;47.760;-122.022;2023-04-25T03:22:02;13.0;;;5.6;;
73421;SDS011;61637;47.760;-122.022;2023-04-25T03:24:03;12.1;;;4.8;;
73421;SDS011;61637;47.760;-122.022;2023-04-25T03:26:01;12.8;;;4.6;;
73421;SDS011;61637;47.760;-122.022;2023-04-25T03:28:01;7.1;;;2.6;;
73421;SDS011;61637;47.760;-122.022;2023-04-25T03:30:01;5.5;;;1.9;;
73421;SDS011;61637;47.760;-122.022;2023-04-25T03:32:01;6.4;;;1.7;;
73421;SDS011;61637;47.760;-122.022;2023-04-25T03:34:01;6.5;;;1.7;;
73421;SDS011;61637;47.760;-122.022;2023-04-25T03:36:01;10.0;;;2.0;;
73421;SDS011;61637;47.760;-122.022;2023-04-25T03:38:01;7.2;;;2.2;;
73421;SDS011;61637;47.760;-122.022;2023-04-25T03:40:01;9.8;;;2.0;;
73421;SDS011;61637;47.760;-122.022;2023-04-25T03:42:01;8.9;;;2.4;;
73421;SDS011;61637;47.760;-122.022;2023-04-25T03:44:01;8.9;;;2.4;;
73421;SDS011;61637;47.760;-122.022;2023-04-25T03:46:01;6.8;;;2.1;;
73421;SDS011;61637;47.760;-122.022;2023-04-25T03:48:01;9.5;;;2.3;;
73421;SDS011;61637;47.760;-122.022;2023-04-25T03:50:01;7.3;;;2.2;;
73421;SDS011;61637;47.760;-122.022;2023-04-25T03:52:01;8.4;;;2.3;;
73421;SDS011;61637;47.760;-122.022;2023-04-25T03:54:01;7.1;;;2.2;;
73421;SDS011;61637;47.760;-122.022;2023-04-25T03:56:01;10.4;;;2.1;;
73421;SDS011;61637;47.760;-122.022;2023-04-25T03:58:01;7.5;;;2.0;;
73421;SDS011;61637;47.760;-122.022;2023-04-25T04:00:02;6.4;;;1.9;;
73421;SDS011;61637;47.760;-122.022;2023-04-25T04:02:01;8.6;;;1.9;;
73421;SDS011;61637;47.760;-122.022;2023-04-25T04:04:01;4.6;;;1.5;;
73421;SDS011;61637;47.760;-122.022;2023-04-25T04:06:01;3.7;;;1.2;;
73421;SDS011;61637;47.760;-122.022;2023-04-25T04:08:01;5.2;;;1.3;;
73421;SDS011;61637;47.760;-122.022;2023-04-25T04:10:02;5.4;;;1.4;;
73421;SDS011;61637;47.760;-122.022;2023-04-25T04:12:01;6.4;;;1.4;;
73421;SDS011;61637;47.760;-122.022;2023-04-25T04:14:01;7.1;;;1.4;;
73421;SDS011;61637;47.760;-122.022;2023-04-25T04:16:01;7.2;;;1.4;;
73421;SDS011;61637;47.760;-122.022;2023-04-25T04:18:01;6.2;;;1.6;;
73421;SDS011;61637;47.760;-122.022;2023-04-25T04:20:02;7.1;;;1.4;;
73421;SDS011;61637;47.760;-122.022;2023-04-25T04:22:02;5.3;;;1.1;;
73421;SDS011;61637;47.760;-122.022;2023-04-25T04:24:01;4.7;;;1.0;;
73421;SDS011;61637;47.760;-122.022;2023-04-25T04:26:01;5.8;;;1.3;;
73421;SDS011;61637;47.760;-122.022;2023-04-25T04:28:02;3.5;;;0.9;;
73421;SDS011;61637;47.760;-122.022;2023-04-25T04:30:01;4.1;;;1.1;;
73421;SDS011;61637;47.760;-122.022;2023-04-25T04:32:02;5.6;;;1.1;;
73421;SDS011;61637;47.760;-122.022;2023-04-25T04:34:01;6.3;;;1.1;;
73421;SDS011;61637;47.760;-122.022;2023-04-25T04:36:01;3.8;;;0.9;;
73421;SDS011;61637;47.760;-122.022;2023-04-25T04:38:01;6.2;;;1.0;;
73421;SDS011;61637;47.760;-122.022;2023-04-25T04:40:01;3.1;;;1.0;;
73421;SDS011;61637;47.760;-122.022;2023-04-25T04:42:01;3.6;;;1.0;;
73421;SDS011;61637;47.760;-122.022;2023-04-25T04:44:01;5.1;;;1.0;;
73421;SDS011;61637;47.760;-122.022;2023-04-25T04:46:01;4.3;;;1.0;;
73421;SDS011;61637;47.760;-122.022;2023-04-25T04:48:01;6.3;;;1.1;;
73421;SDS011;61637;47.760;-122.022;2023-04-25T04:50:01;5.5;;;1.0;;
73421;SDS011;61637;47.760;-122.022;2023-04-25T04:52:01;5.1;;;1.1;;
73421;SDS011;61637;47.760;-122.022;2023-04-25T04:54:01;5.2;;;1.0;;
73421;SDS011;61637;47.760;-122.022;2023-04-25T04:56:01;5.3;;;0.9;;
73421;SDS011;61637;47.760;-122.022;2023-04-25T04:58:01;5.8;;;1.1;;
73421;SDS011;61637;47.760;-122.022;2023-04-25T05:00:01;3.9;;;0.9;;
73421;SDS011;61637;47.760;-122.022;2023-04-25T05:02:01;5.8;;;1.1;;
73421;SDS011;61637;47.760;-122.022;2023-04-25T05:04:01;3.7;;;0.9;;
73421;SDS011;61637;47.760;-122.022;2023-04-25T05:06:01;3.9;;;1.0;;
73421;SDS011;61637;47.760;-122.022;2023-04-25T05:08:01;4.5;;;0.9;;
73421;SDS011;61637;47.760;-122.022;2023-04-25T05:10:02;3.0;;;0.9;;
73421;SDS011;61637;47.760;-122.022;2023-04-25T05:12:01;5.5;;;1.1;;
73421;SDS011;61637;47.760;-122.022;2023-04-25T05:14:01;5.0;;;1.1;;
73421;SDS011;61637;47.760;-122.022;2023-04-25T05:16:01;5.5;;;0.9;;
73421;SDS011;61637;47.760;-122.022;2023-04-25T05:18:01;5.2;;;1.0;;
73421;SDS011;61637;47.760;-122.022;2023-04-25T05:20:01;3.8;;;0.9;;
73421;SDS011;61637;47.760;-122.022;2023-04-25T05:22:01;4.8;;;1.0;;
73421;SDS011;61637;47.760;-122.022;2023-04-25T05:24:01;10.3;;;1.4;;
73421;SDS011;61637;47.760;-122.022;2023-04-25T05:26:01;6.2;;;0.9;;
73421;SDS011;61637;47.760;-122.022;2023-04-25T05:28:01;6.9;;;1.0;;
73421;SDS011;61637;47.760;-122.022;2023-04-25T05:30:01;5.7;;;1.0;;
73421;SDS011;61637;47.760;-122.022;2023-04-25T05:32:01;6.9;;;1.0;;
73421;SDS011;61637;47.760;-122.022;2023-04-25T05:34:02;6.1;;;1.1;;
73421;SDS011;61637;47.760;-122.022;2023-04-25T05:36:01;4.3;;;1.0;;
73421;SDS011;61637;47.760;-122.022;2023-04-25T05:38:01;5.8;;;1.0;;
73421;SDS011;61637;47.760;-122.022;2023-04-25T05:40:01;4.5;;;1.0;;
73421;SDS011;61637;47.760;-122.022;2023-04-25T05:42:01;5.0;;;1.3;;
73421;SDS011;61637;47.760;-122.022;2023-04-25T05:44:01;7.0;;;0.9;;
73421;SDS011;61637;47.760;-122.022;2023-04-25T05:46:01;8.5;;;1.4;;
73421;SDS011;61637;47.760;-122.022;2023-04-25T05:48:01;5.1;;;1.1;;
73421;SDS011;61637;47.760;-122.022;2023-04-25T05:50:01;4.5;;;1.1;;
73421;SDS011;61637;47.760;-122.022;2023-04-25T05:52:01;6.4;;;1.1;;
73421;SDS011;61637;47.760;-122.022;2023-04-25T05:54:01;6.0;;;1.2;;
73421;SDS011;61637;47.760;-122.022;2023-04-25T05:56:01;5.2;;;1.0;;
73421;SDS011;61637;47.760;-122.022;2023-04-25T05:58:02;7.7;;;1.0;;
73421;SDS011;61637;47.760;-122.022;2023-04-25T06:00:01;5.7;;;1.0;;
73421;SDS011;61637;47.760;-122.022;2023-04-25T06:02:01;3.8;;;1.0;;
73421;SDS011;61637;47.760;-122.022;2023-04-25T06:04:01;4.6;;;1.1;;
73421;SDS011;61637;47.760;-122.022;2023-04-25T06:06:01;6.4;;;1.0;;
73421;SDS011;61637;47.760;-122.022;2023-04-25T06:08:02;8.1;;;1.2;;
73421;SDS011;61637;47.760;-122.022;2023-04-25T06:10:01;6.5;;;1.1;;
73421;SDS011;61637;47.760;-122.022;2023-04-25T06:12:01;4.4;;;1.0;;
73421;SDS011;61637;47.760;-122.022;2023-04-25T06:14:01;4.3;;;1.0;;
73421;SDS011;61637;47.760;-122.022;2023-04-25T06:16:01;5.2;;;1.0;;
73421;SDS011;61637;47.760;-122.022;2023-04-25T06:18:01;4.7;;;0.9;;
73421;SDS011;61637;47.760;-122.022;2023-04-25T06:20:02;5.7;;;1.0;;
73421;SDS011;61637;47.760;-122.022;2023-04-25T06:22:02;4.3;;;0.9;;
73421;SDS011;61637;47.760;-122.022;2023-04-25T06:24:01;5.3;;;1.0;;
73421;SDS011;61637;47.760;-122.022;2023-04-25T06:26:01;4.1;;;0.9;;
73421;SDS011;61637;47.760;-122.022;2023-04-25T06:28:01;6.4;;;1.0;;
73421;SDS011;61637;47.760;-122.022;2023-04-25T06:30:01;5.0;;;1.1;;
73421;SDS011;61637;47.760;-122.022;2023-04-25T06:32:01;5.1;;;1.0;;
73421;SDS011;61637;47.760;-122.022;2023-04-25T06:34:01;5.2;;;1.2;;
73421;SDS011;61637;47.760;-122.022;2023-04-25T06:36:01;7.2;;;1.3;;
73421;SDS011;61637;47.760;-122.022;2023-04-25T06:38:01;5.9;;;1.0;;
73421;SDS011;61637;47.760;-122.022;2023-04-25T06:40:01;5.6;;;1.2;;
73421;SDS011;61637;47.760;-122.022;2023-04-25T06:42:01;5.9;;;1.1;;
73421;SDS011;61637;47.760;-122.022;2023-04-25T06:44:01;6.3;;;1.5;;
73421;SDS011;61637;47.760;-122.022;2023-04-25T06:46:01;7.1;;;1.3;;
73421;SDS011;61637;47.760;-122.022;2023-04-25T06:48:01;6.6;;;1.0;;
73421;SDS011;61637;47.760;-122.022;2023-04-25T06:50:01;7.6;;;1.1;;
73421;SDS011;61637;47.760;-122.022;2023-04-25T06:52:01;5.1;;;1.1;;
73421;SDS011;61637;47.760;-122.022;2023-04-25T06:54:01;6.4;;;1.1;;
73421;SDS011;61637;47.760;-122.022;2023-04-25T06:56:02;5.4;;;1.1;;
73421;SDS011;61637;47.760;-122.022;2023-04-25T06:58:01;5.3;;;1.1;;
73421;SDS011;61637;47.760;-122.022;2023-04-25T07:00:01;6.1;;;1.1;;
73421;SDS011;61637;47.760;-122.022;2023-04-25T07:02:01;4.1;;;1.1;;
73421;SDS011;61637;47.760;-122.022;2023-04-25T07:04:01;8.0;;;1.0;;
73421;SDS011;61637;47.760;-122.022;2023-04-25T07:06:01;6.1;;;1.1;;
73421;SDS011;61637;47.760;-122.022;2023-04-25T07:08:01;6.0;;;1.0;;
73421;SDS011;61637;47.760;-122.022;2023-04-25T07:10:01;4.8;;;1.0;;
73421;SDS011;61637;47.760;-122.022;2023-04-25T07:12:01;5.0;;;1.2;;
73421;SDS011;61637;47.760;-122.022;2023-04-25T07:14:01;3.7;;;1.0;;
73421;SDS011;61637;47.760;-122.022;2023-04-25T07:16:01;5.4;;;1.0;;
73421;SDS011;61637;47.760;-122.022;2023-04-25T07:18:01;7.8;;;1.3;;
73421;SDS011;61637;47.760;-122.022;2023-04-25T07:20:01;5.4;;;1.2;;
73421;SDS011;61637;47.760;-122.022;2023-04-25T07:22:01;6.4;;;1.2;;
73421;SDS011;61637;47.760;-122.022;2023-04-25T07:24:01;4.6;;;1.2;;
73421;SDS011;61637;47.760;-122.022;2023-04-25T07:26:01;7.6;;;1.3;;
73421;SDS011;61637;47.760;-122.022;2023-04-25T07:28:01;5.6;;;1.3;;
73421;SDS011;61637;47.760;-122.022;2023-04-25T07:30:01;5.8;;;1.1;;
73421;SDS011;61637;47.760;-122.022;2023-04-25T07:32:01;5.1;;;1.1;;
73421;SDS011;61637;47.760;-122.022;2023-04-25T07:34:01;5.5;;;1.1;;
73421;SDS011;61637;47.760;-122.022;2023-04-25T07:36:01;5.7;;;1.1;;
73421;SDS011;61637;47.760;-122.022;2023-04-25T07:38:01;3.9;;;1.0;;
73421;SDS011;61637;47.760;-122.022;2023-04-25T07:40:02;6.6;;;1.3;;
73421;SDS011;61637;47.760;-122.022;2023-04-25T07:42:01;6.6;;;1.2;;
73421;SDS011;61637;47.760;-122.022;2023-04-25T07:44:01;5.5;;;1.3;;
73421;SDS011;61637;47.760;-122.022;2023-04-25T07:46:01;5.0;;;1.2;;
73421;SDS011;61637;47.760;-122.022;2023-04-25T07:48:01;6.8;;;1.2;;
73421;SDS011;61637;47.760;-122.022;2023-04-25T07:50:01;6.8;;;1.3;;
73421;SDS011;61637;47.760;-122.022;2023-04-25T07:52:02;4.2;;;1.2;;
73421;SDS011;61637;47.760;-122.022;2023-04-25T07:54:01;4.3;;;1.1;;
73421;SDS011;61637;47.760;-122.022;2023-04-25T07:56:02;6.7;;;1.1;;
73421;SDS011;61637;47.760;-122.022;2023-04-25T07:58:01;6.2;;;1.1;;
73421;SDS011;61637;47.760;-122.022;2023-04-25T08:00:01;4.4;;;1.1;;
73421;SDS011;61637;47.760;-122.022;2023-04-25T08:02:01;7.3;;;1.2;;
73421;SDS011;61637;47.760;-122.022;2023-04-25T08:04:01;5.0;;;1.2;;
73421;SDS011;61637;47.760;-122.022;2023-04-25T08:06:01;7.7;;;1.2;;
73421;SDS011;61637;47.760;-122.022;2023-04-25T08:08:01;6.6;;;1.1;;
73421;SDS011;61637;47.760;-122.022;2023-04-25T08:10:01;6.6;;;1.1;;
73421;SDS011;61637;47.760;-122.022;2023-04-25T08:12:01;5.8;;;1.2;;
73421;SDS011;61637;47.760;-122.022;2023-04-25T08:14:01;6.7;;;1.1;;
73421;SDS011;61637;47.760;-122.022;2023-04-25T08:16:01;4.9;;;1.2;;
73421;SDS011;61637;47.760;-122.022;2023-04-25T08:18:01;5.4;;;0.9;;
73421;SDS011;61637;47.760;-122.022;2023-04-25T08:20:02;8.7;;;1.1;;
73421;SDS011;61637;47.760;-122.022;2023-04-25T08:22:02;4.4;;;1.1;;
73421;SDS011;61637;47.760;-122.022;2023-04-25T08:24:01;5.3;;;1.1;;
73421;SDS011;61637;47.760;-122.022;2023-04-25T08:26:01;7.8;;;1.3;;
73421;SDS011;61637;47.760;-122.022;2023-04-25T08:28:01;8.2;;;1.1;;
73421;SDS011;61637;47.760;-122.022;2023-04-25T08:30:01;6.2;;;1.0;;
73421;SDS011;61637;47.760;-122.022;2023-04-25T08:32:01;8.1;;;1.1;;
73421;SDS011;61637;47.760;-122.022;2023-04-25T08:34:01;3.9;;;1.1;;
73421;SDS011;61637;47.760;-122.022;2023-04-25T08:36:01;5.5;;;1.2;;
73421;SDS011;61637;47.760;-122.022;2023-04-25T08:38:01;6.6;;;1.1;;
73421;SDS011;61637;47.760;-122.022;2023-04-25T08:40:01;5.7;;;1.2;;
73421;SDS011;61637;47.760;-122.022;2023-04-25T08:42:02;6.8;;;1.1;;
73421;SDS011;61637;47.760;-122.022;2023-04-25T08:44:03;5.7;;;1.1;;
73421;SDS011;61637;47.760;-122.022;2023-04-25T08:46:01;4.5;;;1.1;;
73421;SDS011;61637;47.760;-122.022;2023-04-25T08:48:02;10.6;;;1.4;;
73421;SDS011;61637;47.760;-122.022;2023-04-25T08:50:03;4.2;;;1.0;;
73421;SDS011;61637;47.760;-122.022;2023-04-25T08:52:04;5.2;;;1.0;;
73421;SDS011;61637;47.760;-122.022;2023-04-25T08:54:08;4.8;;;1.0;;
73421;SDS011;61637;47.760;-122.022;2023-04-25T08:56:02;6.2;;;1.1;;
73421;SDS011;61637;47.760;-122.022;2023-04-25T08:58:01;7.5;;;1.2;;
73421;SDS011;61637;47.760;-122.022;2023-04-25T09:00:01;5.0;;;1.2;;
73421;SDS011;61637;47.760;-122.022;2023-04-25T09:02:01;6.2;;;1.3;;
73421;SDS011;61637;47.760;-122.022;2023-04-25T09:04:01;5.1;;;1.1;;
73421;SDS011;61637;47.760;-122.022;2023-04-25T09:06:02;4.3;;;1.1;;
73421;SDS011;61637;47.760;-122.022;2023-04-25T09:08:02;7.3;;;1.2;;
73421;SDS011;61637;47.760;-122.022;2023-04-25T09:10:01;4.0;;;1.1;;
73421;SDS011;61637;47.760;-122.022;2023-04-25T09:12:01;5.7;;;1.1;;
73421;SDS011;61637;47.760;-122.022;2023-04-25T09:14:11;5.0;;;0.9;;
73421;SDS011;61637;47.760;-122.022;2023-04-25T09:16:01;6.2;;;1.1;;
73421;SDS011;61637;47.760;-122.022;2023-04-25T09:18:01;6.7;;;1.1;;
73421;SDS011;61637;47.760;-122.022;2023-04-25T09:20:09;6.4;;;1.1;;
73421;SDS011;61637;47.760;-122.022;2023-04-25T09:22:02;5.9;;;1.1;;
73421;SDS011;61637;47.760;-122.022;2023-04-25T09:24:01;6.8;;;1.3;;
73421;SDS011;61637;47.760;-122.022;2023-04-25T09:26:01;5.9;;;1.1;;
73421;SDS011;61637;47.760;-122.022;2023-04-25T09:28:04;9.3;;;1.3;;
73421;SDS011;61637;47.760;-122.022;2023-04-25T09:30:01;7.7;;;1.2;;
73421;SDS011;61637;47.760;-122.022;2023-04-25T09:32:12;4.4;;;1.0;;
73421;SDS011;61637;47.760;-122.022;2023-04-25T09:34:02;6.6;;;1.1;;
73421;SDS011;61637;47.760;-122.022;2023-04-25T09:36:04;6.1;;;1.2;;
73421;SDS011;61637;47.760;-122.022;2023-04-25T09:38:01;5.0;;;1.2;;
73421;SDS011;61637;47.760;-122.022;2023-04-25T09:40:05;7.6;;;1.2;;
73421;SDS011;61637;47.760;-122.022;2023-04-25T09:42:03;6.5;;;1.0;;
73421;SDS011;61637;47.760;-122.022;2023-04-25T09:44:02;5.5;;;1.5;;
73421;SDS011;61637;47.760;-122.022;2023-04-25T09:46:02;7.0;;;1.1;;
73421;SDS011;61637;47.760;-122.022;2023-04-25T09:48:03;6.3;;;1.1;;
73421;SDS011;61637;47.760;-122.022;2023-04-25T09:50:01;7.5;;;1.2;;
73421;SDS011;61637;47.760;-122.022;2023-04-25T09:52:01;6.6;;;0.9;;
73421;SDS011;61637;47.760;-122.022;2023-04-25T09:54:01;6.8;;;1.2;;
73421;SDS011;61637;47.760;-122.022;2023-04-25T09:56:04;5.6;;;1.1;;
73421;SDS011;61637;47.760;-122.022;2023-04-25T09:58:05;5.7;;;1.3;;
73421;SDS011;61637;47.760;-122.022;2023-04-25T10:00:02;6.0;;;1.2;;
73421;SDS011;61637;47.760;-122.022;2023-04-25T10:02:01;6.2;;;1.2;;
73421;SDS011;61637;47.760;-122.022;2023-04-25T10:04:03;5.5;;;1.1;;
73421;SDS011;61637;47.760;-122.022;2023-04-25T10:06:02;6.8;;;1.2;;
73421;SDS011;61637;47.760;-122.022;2023-04-25T10:08:03;7.6;;;1.1;;
73421;SDS011;61637;47.760;-122.022;2023-04-25T10:10:02;8.1;;;1.3;;
73421;SDS011;61637;47.760;-122.022;2023-04-25T10:12:03;5.3;;;1.1;;
73421;SDS011;61637;47.760;-122.022;2023-04-25T10:14:01;5.3;;;1.2;;
73421;SDS011;61637;47.760;-122.022;2023-04-25T10:16:04;7.0;;;1.0;;
73421;SDS011;61637;47.760;-122.022;2023-04-25T10:18:02;5.9;;;1.0;;
73421;SDS011;61637;47.760;-122.022;2023-04-25T10:20:02;3.9;;;1.1;;
73421;SDS011;61637;47.760;-122.022;2023-04-25T10:22:07;7.2;;;1.2;;
73421;SDS011;61637;47.760;-122.022;2023-04-25T10:24:01;6.8;;;1.2;;
73421;SDS011;61637;47.760;-122.022;2023-04-25T10:26:01;6.7;;;1.1;;
73421;SDS011;61637;47.760;-122.022;2023-04-25T10:28:03;5.9;;;1.0;;
73421;SDS011;61637;47.760;-122.022;2023-04-25T10:30:02;5.4;;;1.2;;
73421;SDS011;61637;47.760;-122.022;2023-04-25T10:32:02;4.1;;;1.2;;
73421;SDS011;61637;47.760;-122.022;2023-04-25T10:34:01;6.9;;;1.0;;
73421;SDS011;61637;47.760;-122.022;2023-04-25T10:36:10;4.6;;;1.2;;
73421;SDS011;61637;47.760;-122.022;2023-04-25T10:38:04;8.2;;;1.4;;
73421;SDS011;61637;47.760;-122.022;2023-04-25T10:40:08;7.1;;;1.1;;
73421;SDS011;61637;47.760;-122.022;2023-04-25T10:42:02;5.9;;;1.3;;
73421;SDS011;61637;47.760;-122.022;2023-04-25T10:44:04;5.0;;;1.0;;
73421;SDS011;61637;47.760;-122.022;2023-04-25T10:46:02;7.2;;;1.1;;
73421;SDS011;61637;47.760;-122.022;2023-04-25T10:48:01;5.7;;;1.3;;
73421;SDS011;61637;47.760;-122.022;2023-04-25T10:50:06;5.9;;;1.1;;
73421;SDS011;61637;47.760;-122.022;2023-04-25T10:52:12;8.0;;;1.2;;
73421;SDS011;61637;47.760;-122.022;2023-04-25T10:54:03;5.4;;;1.2;;
73421;SDS011;61637;47.760;-122.022;2023-04-25T10:56:10;6.5;;;1.2;;
73421;SDS011;61637;47.760;-122.022;2023-04-25T10:58:01;5.6;;;1.2;;
73421;SDS011;61637;47.760;-122.022;2023-04-25T11:00:06;6.3;;;1.3;;
73421;SDS011;61637;47.760;-122.022;2023-04-25T11:02:11;6.2;;;1.2;;
73421;SDS011;61637;47.760;-122.022;2023-04-25T11:04:01;6.2;;;1.2;;
73421;SDS011;61637;47.760;-122.022;2023-04-25T11:06:02;5.8;;;1.2;;
73421;SDS011;61637;47.760;-122.022;2023-04-25T11:08:02;5.7;;;1.3;;
73421;SDS011;61637;47.760;-122.022;2023-04-25T11:10:03;9.5;;;1.3;;
73421;SDS011;61637;47.760;-122.022;2023-04-25T11:12:01;7.0;;;1.3;;
73421;SDS011;61637;47.760;-122.022;2023-04-25T11:14:01;6.4;;;1.2;;
73421;SDS011;61637;47.760;-122.022;2023-04-25T11:16:01;5.7;;;1.2;;
73421;SDS011;61637;47.760;-122.022;2023-04-25T11:18:01;4.8;;;1.2;;
73421;SDS011;61637;47.760;-122.022;2023-04-25T11:20:02;6.1;;;1.4;;
73421;SDS011;61637;47.760;-122.022;2023-04-25T11:22:02;7.3;;;1.2;;
73421;SDS011;61637;47.760;-122.022;2023-04-25T11:24:01;6.3;;;1.1;;
73421;SDS011;61637;47.760;-122.022;2023-04-25T11:26:01;6.6;;;1.4;;
73421;SDS011;61637;47.760;-122.022;2023-04-25T11:28:01;6.8;;;1.4;;
73421;SDS011;61637;47.760;-122.022;2023-04-25T11:30:10;6.0;;;1.5;;
73421;SDS011;61637;47.760;-122.022;2023-04-25T11:32:01;6.4;;;1.2;;
73421;SDS011;61637;47.760;-122.022;2023-04-25T11:34:01;3.9;;;1.2;;
73421;SDS011;61637;47.760;-122.022;2023-04-25T11:36:02;4.9;;;1.4;;
73421;SDS011;61637;47.760;-122.022;2023-04-25T11:38:01;6.0;;;1.2;;
73421;SDS011;61637;47.760;-122.022;2023-04-25T11:40:02;7.6;;;1.4;;
73421;SDS011;61637;47.760;-122.022;2023-04-25T11:42:01;5.0;;;1.2;;
73421;SDS011;61637;47.760;-122.022;2023-04-25T11:44:02;6.1;;;1.2;;
73421;SDS011;61637;47.760;-122.022;2023-04-25T11:46:01;10.3;;;1.7;;
73421;SDS011;61637;47.760;-122.022;2023-04-25T11:48:01;5.9;;;1.2;;
73421;SDS011;61637;47.760;-122.022;2023-04-25T11:50:02;8.3;;;1.3;;